sensor_id;sensor_type;location;lat;lon;timestamp;temperature;humidity
44069;DHT22;29738;51.234;5.484;2024-03-25T00:00:28;4.30;99.90
44069;DHT22;29738;51.234;5.484;2024-03-25T00:02:55;4.50;99.90
44069;DHT22;29738;51.234;5.484;2024-03-25T00:05:20;4.40;99.90
44069;DHT22;29738;51.234;5.484;2024-03-25T00:07:51;4.40;99.90
44069;DHT22;29738;51.234;5.484;2024-03-25T00:10:17;4.40;99.90
44069;DHT22;29738;51.234;5.484;2024-03-25T00:12:46;4.40;99.90
44069;DHT22;29738;51.234;5.484;2024-03-25T00:15:12;4.50;99.90
44069;DHT22;29738;51.234;5.484;2024-03-25T00:17:38;4.30;99.90
44069;DHT22;29738;51.234;5.484;2024-03-25T00:20:04;4.30;99.90
44069;DHT22;29738;51.234;5.484;2024-03-25T00:22:34;4.10;99.90
44069;DHT22;29738;51.234;5.484;2024-03-25T00:25:00;4.30;99.90
44069;DHT22;29738;51.234;5.484;2024-03-25T00:27:25;4.10;99.90
44069;DHT22;29738;51.234;5.484;2024-03-25T00:29:54;4.30;99.90
44069;DHT22;29738;51.234;5.484;2024-03-25T00:32:20;4.10;99.90
44069;DHT22;29738;51.234;5.484;2024-03-25T00:34:45;4.00;99.90
44069;DHT22;29738;51.234;5.484;2024-03-25T00:37:11;3.80;99.90
44069;DHT22;29738;51.234;5.484;2024-03-25T00:39:38;3.80;99.90
44069;DHT22;29738;51.234;5.484;2024-03-25T00:42:04;4.00;99.90
44069;DHT22;29738;51.234;5.484;2024-03-25T00:44:30;3.90;99.90
44069;DHT22;29738;51.234;5.484;2024-03-25T00:46:55;3.80;99.90
44069;DHT22;29738;51.234;5.484;2024-03-25T00:49:21;3.60;99.90
44069;DHT22;29738;51.234;5.484;2024-03-25T00:51:47;3.70;99.90
44069;DHT22;29738;51.234;5.484;2024-03-25T00:54:13;3.70;99.90
44069;DHT22;29738;51.234;5.484;2024-03-25T00:56:38;3.50;99.90
44069;DHT22;29738;51.234;5.484;2024-03-25T00:59:04;3.70;99.90
44069;DHT22;29738;51.234;5.484;2024-03-25T01:01:32;3.70;99.90
44069;DHT22;29738;51.234;5.484;2024-03-25T01:03:58;3.60;99.90
44069;DHT22;29738;51.234;5.484;2024-03-25T01:06:24;3.50;99.90
44069;DHT22;29738;51.234;5.484;2024-03-25T01:08:50;3.60;99.90
44069;DHT22;29738;51.234;5.484;2024-03-25T01:11:16;3.40;99.90
44069;DHT22;29738;51.234;5.484;2024-03-25T01:13:42;3.60;99.90
44069;DHT22;29738;51.234;5.484;2024-03-25T01:16:09;3.60;99.90
44069;DHT22;29738;51.234;5.484;2024-03-25T01:18:35;3.40;99.90
44069;DHT22;29738;51.234;5.484;2024-03-25T01:21:04;3.40;99.90
44069;DHT22;29738;51.234;5.484;2024-03-25T01:23:30;3.50;99.90
44069;DHT22;29738;51.234;5.484;2024-03-25T01:25:56;3.50;99.90
44069;DHT22;29738;51.234;5.484;2024-03-25T01:28:21;3.60;99.90
44069;DHT22;29738;51.234;5.484;2024-03-25T01:30:48;3.60;99.90
44069;DHT22;29738;51.234;5.484;2024-03-25T01:33:14;3.60;99.90
44069;DHT22;29738;51.234;5.484;2024-03-25T01:35:39;3.60;99.90
44069;DHT22;29738;51.234;5.484;2024-03-25T01:38:05;3.60;99.90
44069;DHT22;29738;51.234;5.484;2024-03-25T01:40:31;3.60;99.90
44069;DHT22;29738;51.234;5.484;2024-03-25T01:43:02;3.40;99.90
44069;DHT22;29738;51.234;5.484;2024-03-25T01:45:33;3.60;99.90
44069;DHT22;29738;51.234;5.484;2024-03-25T01:48:06;3.30;99.90
44069;DHT22;29738;51.234;5.484;2024-03-25T01:50:37;3.30;99.90
44069;DHT22;29738;51.234;5.484;2024-03-25T01:53:04;3.40;99.90
44069;DHT22;29738;51.234;5.484;2024-03-25T01:55:32;3.30;99.90
44069;DHT22;29738;51.234;5.484;2024-03-25T01:58:00;3.30;99.90
44069;DHT22;29738;51.234;5.484;2024-03-25T02:00:26;3.50;99.90
44069;DHT22;29738;51.234;5.484;2024-03-25T02:02:52;3.40;99.90
44069;DHT22;29738;51.234;5.484;2024-03-25T02:05:19;3.60;99.90
44069;DHT22;29738;51.234;5.484;2024-03-25T02:07:46;3.30;99.90
44069;DHT22;29738;51.234;5.484;2024-03-25T02:10:12;3.40;99.90
44069;DHT22;29738;51.234;5.484;2024-03-25T02:12:45;3.40;99.90
44069;DHT22;29738;51.234;5.484;2024-03-25T02:15:12;3.50;99.90
44069;DHT22;29738;51.234;5.484;2024-03-25T02:17:41;3.40;99.90
44069;DHT22;29738;51.234;5.484;2024-03-25T02:20:07;3.30;99.90
44069;DHT22;29738;51.234;5.484;2024-03-25T02:22:37;3.30;99.90
44069;DHT22;29738;51.234;5.484;2024-03-25T02:25:07;3.20;99.90
44069;DHT22;29738;51.234;5.484;2024-03-25T02:27:37;3.10;99.90
44069;DHT22;29738;51.234;5.484;2024-03-25T02:30:06;3.30;99.90
44069;DHT22;29738;51.234;5.484;2024-03-25T02:32:36;3.10;99.90
44069;DHT22;29738;51.234;5.484;2024-03-25T02:35:07;3.10;99.90
44069;DHT22;29738;51.234;5.484;2024-03-25T02:37:36;3.00;99.90
44069;DHT22;29738;51.234;5.484;2024-03-25T02:40:02;2.90;99.90
44069;DHT22;29738;51.234;5.484;2024-03-25T02:42:31;2.90;99.90
44069;DHT22;29738;51.234;5.484;2024-03-25T02:44:57;2.90;99.90
44069;DHT22;29738;51.234;5.484;2024-03-25T02:47:24;3.00;99.90
44069;DHT22;29738;51.234;5.484;2024-03-25T02:49:50;3.00;99.90
44069;DHT22;29738;51.234;5.484;2024-03-25T02:52:18;2.80;99.90
44069;DHT22;29738;51.234;5.484;2024-03-25T02:54:43;2.90;99.90
44069;DHT22;29738;51.234;5.484;2024-03-25T02:57:09;2.80;99.90
44069;DHT22;29738;51.234;5.484;2024-03-25T02:59:35;2.90;99.90
44069;DHT22;29738;51.234;5.484;2024-03-25T03:02:00;2.80;99.90
44069;DHT22;29738;51.234;5.484;2024-03-25T03:04:26;2.60;99.90
44069;DHT22;29738;51.234;5.484;2024-03-25T03:06:52;2.70;99.90
44069;DHT22;29738;51.234;5.484;2024-03-25T03:09:17;2.60;99.90
44069;DHT22;29738;51.234;5.484;2024-03-25T03:11:43;2.70;99.90
44069;DHT22;29738;51.234;5.484;2024-03-25T03:14:09;2.60;99.90
44069;DHT22;29738;51.234;5.484;2024-03-25T03:16:34;2.70;99.90
44069;DHT22;29738;51.234;5.484;2024-03-25T03:19:00;2.70;99.90
44069;DHT22;29738;51.234;5.484;2024-03-25T03:21:26;2.70;99.90
44069;DHT22;29738;51.234;5.484;2024-03-25T03:23:51;2.70;99.90
44069;DHT22;29738;51.234;5.484;2024-03-25T03:26:17;2.50;99.90
44069;DHT22;29738;51.234;5.484;2024-03-25T03:28:43;2.60;99.90
44069;DHT22;29738;51.234;5.484;2024-03-25T03:31:08;2.50;99.90
44069;DHT22;29738;51.234;5.484;2024-03-25T03:33:34;2.70;99.90
44069;DHT22;29738;51.234;5.484;2024-03-25T03:36:00;2.50;99.90
44069;DHT22;29738;51.234;5.484;2024-03-25T03:38:25;2.70;99.90
44069;DHT22;29738;51.234;5.484;2024-03-25T03:41:03;2.40;99.90
44069;DHT22;29738;51.234;5.484;2024-03-25T03:43:29;2.40;99.90
44069;DHT22;29738;51.234;5.484;2024-03-25T03:45:54;2.50;99.90
44069;DHT22;29738;51.234;5.484;2024-03-25T03:48:20;2.30;99.90
44069;DHT22;29738;51.234;5.484;2024-03-25T03:50:48;2.50;99.90
44069;DHT22;29738;51.234;5.484;2024-03-25T03:53:14;2.30;99.90
44069;DHT22;29738;51.234;5.484;2024-03-25T03:55:40;2.50;99.90
44069;DHT22;29738;51.234;5.484;2024-03-25T03:58:05;2.50;99.90
44069;DHT22;29738;51.234;5.484;2024-03-25T04:00:34;2.30;99.90
44069;DHT22;29738;51.234;5.484;2024-03-25T04:03:01;2.50;99.90
44069;DHT22;29738;51.234;5.484;2024-03-25T04:05:30;2.60;99.90
44069;DHT22;29738;51.234;5.484;2024-03-25T04:07:56;2.40;99.90
44069;DHT22;29738;51.234;5.484;2024-03-25T04:10:23;2.40;99.90
44069;DHT22;29738;51.234;5.484;2024-03-25T04:12:48;2.90;99.90
44069;DHT22;29738;51.234;5.484;2024-03-25T04:15:14;2.70;99.90
44069;DHT22;29738;51.234;5.484;2024-03-25T04:17:43;2.80;99.90
44069;DHT22;29738;51.234;5.484;2024-03-25T04:20:11;3.00;99.90
44069;DHT22;29738;51.234;5.484;2024-03-25T04:22:37;2.90;99.90
44069;DHT22;29738;51.234;5.484;2024-03-25T04:25:02;2.90;99.90
44069;DHT22;29738;51.234;5.484;2024-03-25T04:27:28;3.00;99.90
44069;DHT22;29738;51.234;5.484;2024-03-25T04:29:54;3.00;99.90
44069;DHT22;29738;51.234;5.484;2024-03-25T04:32:20;3.00;99.90
44069;DHT22;29738;51.234;5.484;2024-03-25T04:34:45;2.90;99.90
44069;DHT22;29738;51.234;5.484;2024-03-25T04:37:11;2.80;99.90
44069;DHT22;29738;51.234;5.484;2024-03-25T04:39:37;3.00;99.90
44069;DHT22;29738;51.234;5.484;2024-03-25T04:42:03;3.00;99.90
44069;DHT22;29738;51.234;5.484;2024-03-25T04:44:28;3.10;99.90
44069;DHT22;29738;51.234;5.484;2024-03-25T04:46:54;3.00;99.90
44069;DHT22;29738;51.234;5.484;2024-03-25T04:49:20;3.20;99.90
44069;DHT22;29738;51.234;5.484;2024-03-25T04:51:48;3.00;99.90
44069;DHT22;29738;51.234;5.484;2024-03-25T04:54:17;3.00;99.90
44069;DHT22;29738;51.234;5.484;2024-03-25T04:56:42;3.00;99.90
44069;DHT22;29738;51.234;5.484;2024-03-25T04:59:09;2.90;99.90
44069;DHT22;29738;51.234;5.484;2024-03-25T05:01:35;2.80;99.90
44069;DHT22;29738;51.234;5.484;2024-03-25T05:04:02;2.60;99.90
44069;DHT22;29738;51.234;5.484;2024-03-25T05:06:27;2.60;99.90
44069;DHT22;29738;51.234;5.484;2024-03-25T05:08:53;2.90;99.90
44069;DHT22;29738;51.234;5.484;2024-03-25T05:11:19;2.70;99.90
44069;DHT22;29738;51.234;5.484;2024-03-25T05:13:45;3.10;99.90
44069;DHT22;29738;51.234;5.484;2024-03-25T05:16:10;3.00;99.90
44069;DHT22;29738;51.234;5.484;2024-03-25T05:18:36;3.00;99.90
44069;DHT22;29738;51.234;5.484;2024-03-25T05:21:02;3.00;99.90
44069;DHT22;29738;51.234;5.484;2024-03-25T05:23:28;2.70;99.90
44069;DHT22;29738;51.234;5.484;2024-03-25T05:25:53;2.70;99.90
44069;DHT22;29738;51.234;5.484;2024-03-25T05:28:19;2.60;99.90
44069;DHT22;29738;51.234;5.484;2024-03-25T05:30:44;2.60;99.90
44069;DHT22;29738;51.234;5.484;2024-03-25T05:33:10;2.40;99.90
44069;DHT22;29738;51.234;5.484;2024-03-25T05:35:36;2.30;99.90
44069;DHT22;29738;51.234;5.484;2024-03-25T05:38:02;1.90;99.90
44069;DHT22;29738;51.234;5.484;2024-03-25T05:40:29;1.80;99.90
44069;DHT22;29738;51.234;5.484;2024-03-25T05:42:55;1.70;99.90
44069;DHT22;29738;51.234;5.484;2024-03-25T05:45:20;1.90;99.90
44069;DHT22;29738;51.234;5.484;2024-03-25T05:47:46;1.90;99.90
44069;DHT22;29738;51.234;5.484;2024-03-25T05:50:12;1.90;99.90
44069;DHT22;29738;51.234;5.484;2024-03-25T05:52:37;2.30;99.90
44069;DHT22;29738;51.234;5.484;2024-03-25T05:55:03;2.30;99.90
44069;DHT22;29738;51.234;5.484;2024-03-25T05:57:29;2.40;99.90
44069;DHT22;29738;51.234;5.484;2024-03-25T05:59:55;2.50;99.90
44069;DHT22;29738;51.234;5.484;2024-03-25T06:02:20;2.50;99.90
44069;DHT22;29738;51.234;5.484;2024-03-25T06:04:46;2.70;99.90
44069;DHT22;29738;51.234;5.484;2024-03-25T06:07:12;2.80;99.90
44069;DHT22;29738;51.234;5.484;2024-03-25T06:09:37;3.10;99.90
44069;DHT22;29738;51.234;5.484;2024-03-25T06:12:03;3.20;99.90
44069;DHT22;29738;51.234;5.484;2024-03-25T06:14:29;3.10;99.90
44069;DHT22;29738;51.234;5.484;2024-03-25T06:16:54;3.30;99.90
44069;DHT22;29738;51.234;5.484;2024-03-25T06:19:20;3.20;99.90
44069;DHT22;29738;51.234;5.484;2024-03-25T06:21:45;3.20;99.90
44069;DHT22;29738;51.234;5.484;2024-03-25T06:24:11;3.40;99.90
44069;DHT22;29738;51.234;5.484;2024-03-25T06:26:37;3.30;99.90
44069;DHT22;29738;51.234;5.484;2024-03-25T06:29:03;3.20;99.90
44069;DHT22;29738;51.234;5.484;2024-03-25T06:31:28;2.90;99.90
44069;DHT22;29738;51.234;5.484;2024-03-25T06:34:12;2.90;99.90
44069;DHT22;29738;51.234;5.484;2024-03-25T06:36:48;2.80;99.90
44069;DHT22;29738;51.234;5.484;2024-03-25T06:39:14;3.00;99.90
44069;DHT22;29738;51.234;5.484;2024-03-25T06:41:40;2.90;99.90
44069;DHT22;29738;51.234;5.484;2024-03-25T06:44:06;3.10;99.90
44069;DHT22;29738;51.234;5.484;2024-03-25T06:46:33;3.40;99.90
44069;DHT22;29738;51.234;5.484;2024-03-25T06:48:59;3.60;99.90
44069;DHT22;29738;51.234;5.484;2024-03-25T06:51:24;4.00;99.90
44069;DHT22;29738;51.234;5.484;2024-03-25T06:53:50;4.00;99.90
44069;DHT22;29738;51.234;5.484;2024-03-25T06:56:16;4.10;99.90
44069;DHT22;29738;51.234;5.484;2024-03-25T06:58:42;4.50;99.90
44069;DHT22;29738;51.234;5.484;2024-03-25T07:01:09;4.50;99.90
44069;DHT22;29738;51.234;5.484;2024-03-25T07:03:38;4.40;99.90
44069;DHT22;29738;51.234;5.484;2024-03-25T07:06:04;4.80;99.90
44069;DHT22;29738;51.234;5.484;2024-03-25T07:08:31;4.80;99.90
44069;DHT22;29738;51.234;5.484;2024-03-25T07:10:57;4.70;99.90
44069;DHT22;29738;51.234;5.484;2024-03-25T07:13:23;4.50;99.90
44069;DHT22;29738;51.234;5.484;2024-03-25T07:15:49;4.40;99.90
44069;DHT22;29738;51.234;5.484;2024-03-25T07:18:15;4.30;99.90
44069;DHT22;29738;51.234;5.484;2024-03-25T07:20:42;4.30;99.90
44069;DHT22;29738;51.234;5.484;2024-03-25T07:23:09;4.30;99.90
44069;DHT22;29738;51.234;5.484;2024-03-25T07:25:35;4.50;99.90
44069;DHT22;29738;51.234;5.484;2024-03-25T07:28:04;4.70;99.90
44069;DHT22;29738;51.234;5.484;2024-03-25T07:30:30;4.70;99.90
44069;DHT22;29738;51.234;5.484;2024-03-25T07:32:56;4.90;99.90
44069;DHT22;29738;51.234;5.484;2024-03-25T07:35:22;5.00;99.90
44069;DHT22;29738;51.234;5.484;2024-03-25T07:37:48;5.10;99.90
44069;DHT22;29738;51.234;5.484;2024-03-25T07:40:18;5.40;99.90
44069;DHT22;29738;51.234;5.484;2024-03-25T07:42:43;5.40;99.90
44069;DHT22;29738;51.234;5.484;2024-03-25T07:45:09;5.30;99.90
44069;DHT22;29738;51.234;5.484;2024-03-25T07:47:35;5.20;99.90
44069;DHT22;29738;51.234;5.484;2024-03-25T07:50:01;5.30;99.90
44069;DHT22;29738;51.234;5.484;2024-03-25T07:52:27;5.50;99.90
44069;DHT22;29738;51.234;5.484;2024-03-25T07:54:53;5.50;99.90
44069;DHT22;29738;51.234;5.484;2024-03-25T07:57:19;5.60;99.90
44069;DHT22;29738;51.234;5.484;2024-03-25T07:59:48;5.60;99.90
44069;DHT22;29738;51.234;5.484;2024-03-25T08:02:14;5.70;99.90
44069;DHT22;29738;51.234;5.484;2024-03-25T08:04:39;5.80;99.90
44069;DHT22;29738;51.234;5.484;2024-03-25T08:07:05;5.90;99.90
44069;DHT22;29738;51.234;5.484;2024-03-25T08:09:31;6.20;99.90
44069;DHT22;29738;51.234;5.484;2024-03-25T08:11:57;6.00;99.90
44069;DHT22;29738;51.234;5.484;2024-03-25T08:14:23;6.20;99.90
44069;DHT22;29738;51.234;5.484;2024-03-25T08:16:48;6.10;99.90
44069;DHT22;29738;51.234;5.484;2024-03-25T08:19:14;6.30;99.90
44069;DHT22;29738;51.234;5.484;2024-03-25T08:21:40;6.30;99.90
44069;DHT22;29738;51.234;5.484;2024-03-25T08:24:06;6.30;99.90
44069;DHT22;29738;51.234;5.484;2024-03-25T08:26:32;6.40;99.90
44069;DHT22;29738;51.234;5.484;2024-03-25T08:28:57;6.50;99.90
44069;DHT22;29738;51.234;5.484;2024-03-25T08:31:23;6.70;99.90
44069;DHT22;29738;51.234;5.484;2024-03-25T08:33:49;6.70;99.90
44069;DHT22;29738;51.234;5.484;2024-03-25T08:36:14;6.80;99.90
44069;DHT22;29738;51.234;5.484;2024-03-25T08:38:40;6.80;99.90
44069;DHT22;29738;51.234;5.484;2024-03-25T08:41:06;7.00;99.90
44069;DHT22;29738;51.234;5.484;2024-03-25T08:43:31;7.00;99.90
44069;DHT22;29738;51.234;5.484;2024-03-25T08:45:57;7.10;99.90
44069;DHT22;29738;51.234;5.484;2024-03-25T08:48:23;7.30;99.90
44069;DHT22;29738;51.234;5.484;2024-03-25T08:50:49;7.30;99.90
44069;DHT22;29738;51.234;5.484;2024-03-25T08:53:15;7.50;99.90
44069;DHT22;29738;51.234;5.484;2024-03-25T08:55:45;7.50;99.90
44069;DHT22;29738;51.234;5.484;2024-03-25T08:58:14;7.70;99.90
44069;DHT22;29738;51.234;5.484;2024-03-25T09:00:41;7.80;99.90
44069;DHT22;29738;51.234;5.484;2024-03-25T09:03:07;7.90;99.90
44069;DHT22;29738;51.234;5.484;2024-03-25T09:05:34;7.80;99.90
44069;DHT22;29738;51.234;5.484;2024-03-25T09:08:00;8.00;99.90
44069;DHT22;29738;51.234;5.484;2024-03-25T09:10:26;8.30;99.90
44069;DHT22;29738;51.234;5.484;2024-03-25T09:13:10;8.20;99.90
44069;DHT22;29738;51.234;5.484;2024-03-25T09:15:39;8.20;99.90
44069;DHT22;29738;51.234;5.484;2024-03-25T09:18:05;8.20;99.90
44069;DHT22;29738;51.234;5.484;2024-03-25T09:20:33;8.30;99.90
44069;DHT22;29738;51.234;5.484;2024-03-25T09:22:59;8.50;99.90
44069;DHT22;29738;51.234;5.484;2024-03-25T09:25:25;8.50;99.90
44069;DHT22;29738;51.234;5.484;2024-03-25T09:27:51;8.50;99.90
44069;DHT22;29738;51.234;5.484;2024-03-25T09:30:17;8.50;99.90
44069;DHT22;29738;51.234;5.484;2024-03-25T09:32:46;8.40;99.90
44069;DHT22;29738;51.234;5.484;2024-03-25T09:35:12;8.60;99.90
44069;DHT22;29738;51.234;5.484;2024-03-25T09:37:38;8.60;99.90
44069;DHT22;29738;51.234;5.484;2024-03-25T09:40:04;8.70;99.90
44069;DHT22;29738;51.234;5.484;2024-03-25T09:45:09;9.10;99.90
44069;DHT22;29738;51.234;5.484;2024-03-25T09:47:39;8.90;99.90
44069;DHT22;29738;51.234;5.484;2024-03-25T09:50:06;9.00;99.90
44069;DHT22;29738;51.234;5.484;2024-03-25T09:52:33;9.00;99.90
44069;DHT22;29738;51.234;5.484;2024-03-25T09:54:59;9.10;99.90
44069;DHT22;29738;51.234;5.484;2024-03-25T09:57:25;9.20;99.90
44069;DHT22;29738;51.234;5.484;2024-03-25T09:59:55;9.40;99.90
44069;DHT22;29738;51.234;5.484;2024-03-25T10:02:23;9.70;99.90
44069;DHT22;29738;51.234;5.484;2024-03-25T10:04:52;9.90;99.90
44069;DHT22;29738;51.234;5.484;2024-03-25T10:07:24;10.10;38.70
44069;DHT22;29738;51.234;5.484;2024-03-25T10:09:51;10.10;1.00
44069;DHT22;29738;51.234;5.484;2024-03-25T10:12:17;10.00;1.00
44069;DHT22;29738;51.234;5.484;2024-03-25T10:14:43;10.00;1.00
44069;DHT22;29738;51.234;5.484;2024-03-25T10:17:09;10.20;1.00
44069;DHT22;29738;51.234;5.484;2024-03-25T10:19:35;10.50;1.00
44069;DHT22;29738;51.234;5.484;2024-03-25T10:22:08;10.50;99.90
44069;DHT22;29738;51.234;5.484;2024-03-25T10:24:41;10.50;99.90
44069;DHT22;29738;51.234;5.484;2024-03-25T10:27:25;10.30;99.90
44069;DHT22;29738;51.234;5.484;2024-03-25T10:29:54;10.20;99.90
44069;DHT22;29738;51.234;5.484;2024-03-25T10:32:20;10.50;99.90
44069;DHT22;29738;51.234;5.484;2024-03-25T10:34:46;10.40;99.90
44069;DHT22;29738;51.234;5.484;2024-03-25T10:37:13;10.60;99.90
44069;DHT22;29738;51.234;5.484;2024-03-25T10:42:15;11.00;99.90
44069;DHT22;29738;51.234;5.484;2024-03-25T10:44:44;10.80;99.90
44069;DHT22;29738;51.234;5.484;2024-03-25T10:47:13;10.90;99.90
44069;DHT22;29738;51.234;5.484;2024-03-25T10:52:15;10.80;99.90
44069;DHT22;29738;51.234;5.484;2024-03-25T10:54:43;11.20;99.90
44069;DHT22;29738;51.234;5.484;2024-03-25T10:57:11;11.00;99.90
44069;DHT22;29738;51.234;5.484;2024-03-25T10:59:38;11.10;99.90
44069;DHT22;29738;51.234;5.484;2024-03-25T11:02:10;10.90;99.90
44069;DHT22;29738;51.234;5.484;2024-03-25T11:04:37;11.10;99.90
44069;DHT22;29738;51.234;5.484;2024-03-25T11:07:08;11.40;99.90
44069;DHT22;29738;51.234;5.484;2024-03-25T11:09:33;11.80;99.90
44069;DHT22;29738;51.234;5.484;2024-03-25T11:12:04;11.60;99.90
44069;DHT22;29738;51.234;5.484;2024-03-25T11:14:29;11.20;99.90
44069;DHT22;29738;51.234;5.484;2024-03-25T11:16:57;11.40;99.90
44069;DHT22;29738;51.234;5.484;2024-03-25T11:19:29;11.40;99.90
44069;DHT22;29738;51.234;5.484;2024-03-25T11:22:07;11.90;99.90
44069;DHT22;29738;51.234;5.484;2024-03-25T11:24:34;12.10;99.90
44069;DHT22;29738;51.234;5.484;2024-03-25T11:27:02;11.90;99.90
44069;DHT22;29738;51.234;5.484;2024-03-25T11:29:28;11.80;99.90
44069;DHT22;29738;51.234;5.484;2024-03-25T11:31:55;11.90;99.90
44069;DHT22;29738;51.234;5.484;2024-03-25T11:34:24;12.40;99.90
44069;DHT22;29738;51.234;5.484;2024-03-25T11:36:50;13.00;99.90
44069;DHT22;29738;51.234;5.484;2024-03-25T11:39:17;12.60;99.90
44069;DHT22;29738;51.234;5.484;2024-03-25T11:41:43;11.90;99.90
44069;DHT22;29738;51.234;5.484;2024-03-25T11:44:11;12.10;99.90
44069;DHT22;29738;51.234;5.484;2024-03-25T11:46:38;12.30;99.90
44069;DHT22;29738;51.234;5.484;2024-03-25T11:49:14;12.50;99.90
44069;DHT22;29738;51.234;5.484;2024-03-25T11:51:42;12.60;99.90
44069;DHT22;29738;51.234;5.484;2024-03-25T11:54:10;12.80;86.60
44069;DHT22;29738;51.234;5.484;2024-03-25T11:56:37;12.40;22.10
44069;DHT22;29738;51.234;5.484;2024-03-25T11:59:05;11.60;33.30
44069;DHT22;29738;51.234;5.484;2024-03-25T12:01:32;11.50;32.00
44069;DHT22;29738;51.234;5.484;2024-03-25T12:04:16;11.90;3.30
44069;DHT22;29738;51.234;5.484;2024-03-25T12:06:43;12.60;20.00
44069;DHT22;29738;51.234;5.484;2024-03-25T12:09:12;13.40;23.60
44069;DHT22;29738;51.234;5.484;2024-03-25T12:11:57;13.20;22.60
44069;DHT22;29738;51.234;5.484;2024-03-25T12:14:23;13.20;1.00
44069;DHT22;29738;51.234;5.484;2024-03-25T12:16:53;12.80;1.00
44069;DHT22;29738;51.234;5.484;2024-03-25T12:19:19;12.60;3.30
44069;DHT22;29738;51.234;5.484;2024-03-25T12:21:46;12.30;29.00
44069;DHT22;29738;51.234;5.484;2024-03-25T12:24:13;12.50;47.70
44069;DHT22;29738;51.234;5.484;2024-03-25T12:26:40;13.30;20.50
44069;DHT22;29738;51.234;5.484;2024-03-25T12:29:06;13.80;1.00
44069;DHT22;29738;51.234;5.484;2024-03-25T12:31:32;13.90;1.00
44069;DHT22;29738;51.234;5.484;2024-03-25T12:33:57;14.70;1.00
44069;DHT22;29738;51.234;5.484;2024-03-25T12:36:23;15.80;1.00
44069;DHT22;29738;51.234;5.484;2024-03-25T12:38:55;16.30;1.00
44069;DHT22;29738;51.234;5.484;2024-03-25T12:41:24;16.50;99.90
44069;DHT22;29738;51.234;5.484;2024-03-25T12:43:50;15.70;99.90
44069;DHT22;29738;51.234;5.484;2024-03-25T12:46:17;15.20;99.90
44069;DHT22;29738;51.234;5.484;2024-03-25T12:48:43;14.80;99.90
44069;DHT22;29738;51.234;5.484;2024-03-25T12:51:14;14.40;99.90
44069;DHT22;29738;51.234;5.484;2024-03-25T12:53:40;14.80;1.00
44069;DHT22;29738;51.234;5.484;2024-03-25T12:56:06;15.90;1.00
44069;DHT22;29738;51.234;5.484;2024-03-25T12:58:32;16.60;99.90
44069;DHT22;29738;51.234;5.484;2024-03-25T13:00:58;17.60;99.90
44069;DHT22;29738;51.234;5.484;2024-03-25T13:03:24;18.40;99.90
44069;DHT22;29738;51.234;5.484;2024-03-25T13:05:50;18.00;99.90
44069;DHT22;29738;51.234;5.484;2024-03-25T13:08:15;17.70;99.90
44069;DHT22;29738;51.234;5.484;2024-03-25T13:10:42;17.30;99.90
44069;DHT22;29738;51.234;5.484;2024-03-25T13:13:09;17.80;99.90
44069;DHT22;29738;51.234;5.484;2024-03-25T13:15:35;19.40;99.90
44069;DHT22;29738;51.234;5.484;2024-03-25T13:18:01;20.40;15.00
44069;DHT22;29738;51.234;5.484;2024-03-25T13:20:27;20.40;1.00
44069;DHT22;29738;51.234;5.484;2024-03-25T13:22:54;20.60;1.00
44069;DHT22;29738;51.234;5.484;2024-03-25T13:25:25;20.00;99.90
44069;DHT22;29738;51.234;5.484;2024-03-25T13:27:50;19.70;99.90
44069;DHT22;29738;51.234;5.484;2024-03-25T13:30:16;19.90;99.90
44069;DHT22;29738;51.234;5.484;2024-03-25T13:32:42;19.80;99.90
44069;DHT22;29738;51.234;5.484;2024-03-25T13:35:08;18.60;99.90
44069;DHT22;29738;51.234;5.484;2024-03-25T13:37:34;18.10;99.90
44069;DHT22;29738;51.234;5.484;2024-03-25T13:39:59;17.10;99.90
44069;DHT22;29738;51.234;5.484;2024-03-25T13:42:25;16.30;99.90
44069;DHT22;29738;51.234;5.484;2024-03-25T13:44:53;15.00;99.90
44069;DHT22;29738;51.234;5.484;2024-03-25T13:47:19;15.10;99.90
44069;DHT22;29738;51.234;5.484;2024-03-25T13:49:45;16.10;99.90
44069;DHT22;29738;51.234;5.484;2024-03-25T13:52:10;17.20;99.90
44069;DHT22;29738;51.234;5.484;2024-03-25T13:54:36;17.40;99.90
44069;DHT22;29738;51.234;5.484;2024-03-25T13:57:02;17.90;99.90
44069;DHT22;29738;51.234;5.484;2024-03-25T13:59:28;18.20;99.90
44069;DHT22;29738;51.234;5.484;2024-03-25T14:01:54;18.30;99.90
44069;DHT22;29738;51.234;5.484;2024-03-25T14:04:20;19.90;99.90
44069;DHT22;29738;51.234;5.484;2024-03-25T14:06:46;21.20;99.90
44069;DHT22;29738;51.234;5.484;2024-03-25T14:09:26;21.00;99.90
44069;DHT22;29738;51.234;5.484;2024-03-25T14:11:52;20.70;99.90
44069;DHT22;29738;51.234;5.484;2024-03-25T14:14:18;20.60;99.90
44069;DHT22;29738;51.234;5.484;2024-03-25T14:16:44;20.40;99.90
44069;DHT22;29738;51.234;5.484;2024-03-25T14:19:10;21.10;99.90
44069;DHT22;29738;51.234;5.484;2024-03-25T14:21:36;19.70;99.90
44069;DHT22;29738;51.234;5.484;2024-03-25T14:24:03;20.20;99.90
44069;DHT22;29738;51.234;5.484;2024-03-25T14:26:29;21.30;99.90
44069;DHT22;29738;51.234;5.484;2024-03-25T14:28:55;20.60;99.90
44069;DHT22;29738;51.234;5.484;2024-03-25T14:31:21;20.50;99.90
44069;DHT22;29738;51.234;5.484;2024-03-25T14:33:46;20.40;99.90
44069;DHT22;29738;51.234;5.484;2024-03-25T14:36:12;20.50;99.90
44069;DHT22;29738;51.234;5.484;2024-03-25T14:38:38;20.40;99.90
44069;DHT22;29738;51.234;5.484;2024-03-25T14:41:05;20.90;99.90
44069;DHT22;29738;51.234;5.484;2024-03-25T14:43:30;21.30;99.90
44069;DHT22;29738;51.234;5.484;2024-03-25T14:45:56;21.60;99.90
44069;DHT22;29738;51.234;5.484;2024-03-25T14:48:22;21.80;99.90
44069;DHT22;29738;51.234;5.484;2024-03-25T14:50:47;21.90;99.90
44069;DHT22;29738;51.234;5.484;2024-03-25T14:53:13;21.80;99.90
44069;DHT22;29738;51.234;5.484;2024-03-25T14:55:41;21.80;99.90
44069;DHT22;29738;51.234;5.484;2024-03-25T14:58:06;22.00;99.90
44069;DHT22;29738;51.234;5.484;2024-03-25T15:00:32;21.10;99.90
44069;DHT22;29738;51.234;5.484;2024-03-25T15:02:58;20.60;99.90
44069;DHT22;29738;51.234;5.484;2024-03-25T15:05:23;20.60;99.90
44069;DHT22;29738;51.234;5.484;2024-03-25T15:07:49;20.40;99.90
44069;DHT22;29738;51.234;5.484;2024-03-25T15:10:15;20.80;99.90
44069;DHT22;29738;51.234;5.484;2024-03-25T15:12:40;20.80;99.90
44069;DHT22;29738;51.234;5.484;2024-03-25T15:15:06;20.80;99.90
44069;DHT22;29738;51.234;5.484;2024-03-25T15:17:35;20.20;99.90
44069;DHT22;29738;51.234;5.484;2024-03-25T15:20:01;19.70;99.90
44069;DHT22;29738;51.234;5.484;2024-03-25T15:22:27;19.10;99.90
44069;DHT22;29738;51.234;5.484;2024-03-25T15:24:53;18.50;99.90
44069;DHT22;29738;51.234;5.484;2024-03-25T15:27:19;19.20;99.90
44069;DHT22;29738;51.234;5.484;2024-03-25T15:29:45;19.70;99.90
44069;DHT22;29738;51.234;5.484;2024-03-25T15:32:14;20.00;99.90
44069;DHT22;29738;51.234;5.484;2024-03-25T15:34:41;18.90;99.90
44069;DHT22;29738;51.234;5.484;2024-03-25T15:37:07;19.00;99.90
44069;DHT22;29738;51.234;5.484;2024-03-25T15:39:35;19.00;99.90
44069;DHT22;29738;51.234;5.484;2024-03-25T15:42:01;19.60;99.90
44069;DHT22;29738;51.234;5.484;2024-03-25T15:44:27;20.30;99.90
44069;DHT22;29738;51.234;5.484;2024-03-25T15:46:53;20.30;99.90